createdAt,value
2023-04-18T00:02:04.678Z,75.70
2023-04-18T00:05:08.010Z,75.57
2023-04-18T00:08:10.848Z,76.39
2023-04-18T00:11:13.600Z,76.47
2023-04-18T00:14:16.150Z,77.05
2023-04-18T00:17:20.422Z,77.15
2023-04-18T00:20:26.810Z,77.16
2023-04-18T00:23:30.247Z,77.31
2023-04-18T00:26:32.626Z,77.43
2023-04-18T00:29:35.446Z,77.32
2023-04-18T00:32:38.605Z,77.33
2023-04-18T00:35:41.319Z,77.24
2023-04-18T00:38:43.706Z,77.41
2023-04-18T00:41:46.668Z,77.54
2023-04-18T00:44:49.181Z,77.68
2023-04-18T00:47:52.174Z,77.46
2023-04-18T00:50:55.307Z,77.38
2023-04-18T00:53:58.746Z,77.08
2023-04-18T00:57:02.256Z,77.14
2023-04-18T01:00:10.345Z,76.99
2023-04-18T01:03:14.492Z,77.34
2023-04-18T01:06:17.789Z,77.11
2023-04-18T01:09:21.187Z,77.08
2023-04-18T01:12:23.948Z,77.03
2023-04-18T01:15:26.333Z,76.74
2023-04-18T01:18:31.471Z,76.63
2023-04-18T01:21:36.179Z,76.57
2023-04-18T01:24:39.245Z,76.84
2023-04-18T01:27:41.794Z,76.62
2023-04-18T01:30:44.452Z,76.93
2023-04-18T01:33:46.828Z,77.13
2023-04-18T01:36:51.369Z,77.26
2023-04-18T01:39:53.888Z,77.18
2023-04-18T01:42:56.618Z,76.90
2023-04-18T01:45:58.925Z,76.59
2023-04-18T01:49:01.665Z,76.44
2023-04-18T01:52:04.065Z,76.39
2023-04-18T01:55:06.948Z,76.31
2023-04-18T01:58:10.812Z,76.25
2023-04-18T02:01:13.758Z,76.15
2023-04-18T02:04:16.640Z,76.00
2023-04-18T02:07:21.765Z,76.20
2023-04-18T02:10:24.578Z,75.99
2023-04-18T02:13:27.231Z,75.88
2023-04-18T02:16:29.869Z,75.76
2023-04-18T02:19:32.612Z,75.72
2023-04-18T02:22:37.596Z,75.76
2023-04-18T02:25:40.384Z,75.84
2023-04-18T02:28:42.895Z,75.81
2023-04-18T02:31:45.728Z,75.76
2023-04-18T02:34:50.104Z,75.52
2023-04-18T02:37:52.889Z,75.38
2023-04-18T02:40:56.054Z,75.32
2023-04-18T02:43:59.226Z,75.28
2023-04-18T02:47:01.684Z,75.31
2023-04-18T02:50:05.744Z,75.31
2023-04-18T02:53:08.560Z,75.33
2023-04-18T02:56:17.052Z,75.78
2023-04-18T02:59:21.100Z,75.95
2023-04-18T03:02:25.091Z,76.03
2023-04-18T03:05:27.911Z,76.65
2023-04-18T03:08:31.033Z,76.88
2023-04-18T03:11:33.328Z,77.08
2023-04-18T03:14:36.128Z,77.11
2023-04-18T03:17:39.486Z,77.39
2023-04-18T03:20:42.593Z,77.31
2023-04-18T03:23:44.858Z,77.30
2023-04-18T03:26:47.992Z,77.22
2023-04-18T03:29:51.860Z,77.21
2023-04-18T03:32:56.132Z,77.13
2023-04-18T03:35:59.327Z,76.98
2023-04-18T03:39:02.012Z,77.18
2023-04-18T03:42:04.418Z,77.69
2023-04-18T03:45:07.779Z,78.24
2023-04-18T03:48:10.439Z,78.39
2023-04-18T03:51:14.527Z,78.69
2023-04-18T03:54:17.259Z,78.72
2023-04-18T03:57:20.068Z,78.85
2023-04-18T04:00:22.469Z,78.59
2023-04-18T04:03:27.984Z,78.68
2023-04-18T04:06:32.212Z,78.09
2023-04-18T04:09:36.052Z,77.97
2023-04-18T04:12:38.546Z,78.29
2023-04-18T04:15:41.881Z,78.77
2023-04-18T04:18:45.125Z,79.27
2023-04-18T04:21:48.149Z,79.47
2023-04-18T04:24:51.864Z,79.78
2023-04-18T04:27:56.683Z,80.01
2023-04-18T04:30:59.522Z,80.40
2023-04-18T04:34:03.664Z,80.33
2023-04-18T04:37:06.409Z,80.73
2023-04-18T04:40:11.138Z,81.12
2023-04-18T04:43:15.522Z,81.09
2023-04-18T04:46:19.997Z,81.41
2023-04-18T04:49:24.157Z,82.05
2023-04-18T04:52:26.737Z,82.21
2023-04-18T04:55:29.160Z,82.80
2023-04-18T04:58:32.421Z,82.84
2023-04-18T05:01:35.528Z,82.71
2023-04-18T05:04:39.287Z,83.04
2023-04-18T05:07:41.726Z,82.70
2023-04-18T05:10:45.900Z,82.43
2023-04-18T05:13:48.222Z,82.32
2023-04-18T05:16:50.931Z,81.76
2023-04-18T05:19:53.325Z,81.29
2023-04-18T05:22:56.025Z,80.33
2023-04-18T05:25:58.521Z,80.62
2023-04-18T05:29:01.526Z,80.30
2023-04-18T05:32:04.003Z,80.63
2023-04-18T05:35:07.471Z,80.35
2023-04-18T05:38:09.879Z,79.81
2023-04-18T05:41:12.541Z,79.52
2023-04-18T05:44:16.053Z,79.38
2023-04-18T05:47:18.660Z,78.88
2023-04-18T05:50:21.627Z,78.33
2023-04-18T05:53:24.325Z,78.43
2023-04-18T05:56:26.766Z,77.71
2023-04-18T05:59:29.448Z,77.07
2023-04-18T06:02:32.072Z,76.77
2023-04-18T06:05:35.066Z,76.66
2023-04-18T06:08:39.361Z,75.92
2023-04-18T06:11:42.004Z,76.05
2023-04-18T06:14:44.369Z,76.37
2023-04-18T06:17:47.048Z,75.79
2023-04-18T06:20:49.577Z,75.39
2023-04-18T06:23:52.404Z,74.65
2023-04-18T06:26:55.299Z,74.00
2023-04-18T06:29:57.967Z,73.81
2023-04-18T06:33:00.470Z,73.87
2023-04-18T06:36:04.497Z,73.37
2023-04-18T06:39:06.921Z,73.24
2023-04-18T06:42:09.743Z,72.30
2023-04-18T06:45:17.578Z,72.04
2023-04-18T06:48:20.270Z,71.45
2023-04-18T06:51:22.711Z,70.59
2023-04-18T06:54:25.524Z,70.00
2023-04-18T06:57:28.370Z,69.39
2023-04-18T07:00:31.083Z,69.69
2023-04-18T07:03:33.521Z,69.09
2023-04-18T07:06:36.717Z,68.18
2023-04-18T07:09:39.094Z,67.90
2023-04-18T07:12:41.790Z,66.67
2023-04-18T07:15:44.238Z,66.79
2023-04-18T07:18:46.885Z,66.62
2023-04-18T07:21:49.374Z,66.39
2023-04-18T07:24:52.053Z,66.73
2023-04-18T07:27:54.410Z,66.96
2023-04-18T07:30:57.212Z,67.10
2023-04-18T07:33:59.645Z,66.90
2023-04-18T07:37:02.495Z,66.90
2023-04-18T07:40:05.798Z,66.84
2023-04-18T07:43:09.566Z,66.81
2023-04-18T07:46:12.017Z,67.00
2023-04-18T07:49:15.218Z,66.49
2023-04-18T07:52:17.905Z,66.61
2023-04-18T07:55:20.632Z,66.72
2023-04-18T07:58:22.931Z,66.90
2023-04-18T08:01:27.275Z,67.37
2023-04-18T08:04:30.560Z,67.43
2023-04-18T08:07:33.228Z,66.81
2023-04-18T08:10:36.147Z,66.81
2023-04-18T08:13:38.852Z,67.07
2023-04-18T08:16:41.646Z,66.40
2023-04-18T08:19:45.607Z,65.75
2023-04-18T08:23:05.087Z,65.02
2023-04-18T08:26:10.226Z,65.18
2023-04-18T08:29:13.090Z,64.94
2023-04-18T08:32:15.622Z,64.37
2023-04-18T08:35:18.316Z,63.86
2023-04-18T08:38:20.683Z,62.28
2023-04-18T08:41:24.161Z,61.26
2023-04-18T08:44:29.839Z,59.60
2023-04-18T08:47:35.218Z,58.41
2023-04-18T08:50:37.703Z,57.19
2023-04-18T08:53:42.086Z,56.22
2023-04-18T08:56:45.320Z,56.72
2023-04-18T08:59:50.368Z,57.94
2023-04-18T09:02:59.290Z,58.36
2023-04-18T09:06:16.402Z,58.37
2023-04-18T09:09:19.706Z,58.54
2023-04-18T09:12:25.369Z,58.93
2023-04-18T09:15:29.287Z,58.83
2023-04-18T09:18:32.567Z,58.67
2023-04-18T09:21:36.135Z,58.41
2023-04-18T09:24:40.087Z,57.05
2023-04-18T09:27:42.589Z,56.43
2023-04-18T09:30:46.573Z,56.08
2023-04-18T09:33:54.549Z,55.55
2023-04-18T09:37:06.983Z,55.18
2023-04-18T09:40:19.324Z,55.28
2023-04-18T09:43:22.064Z,55.81
2023-04-18T09:46:25.359Z,55.16
2023-04-18T09:49:28.466Z,54.56
2023-04-18T09:52:36.859Z,53.65
2023-04-18T09:55:41.525Z,53.13
2023-04-18T09:58:47.114Z,53.58
2023-04-18T10:01:50.971Z,53.38
2023-04-18T10:04:54.926Z,53.69
2023-04-18T10:07:57.565Z,53.73
2023-04-18T10:11:00.466Z,53.83
2023-04-18T10:14:07.040Z,53.09
2023-04-18T10:17:11.017Z,52.28
2023-04-18T10:20:20.024Z,52.34
2023-04-18T10:23:32.135Z,51.81
2023-04-18T10:26:47.279Z,51.37
2023-04-18T10:29:50.834Z,50.39
2023-04-18T10:32:55.586Z,49.66
2023-04-18T10:36:20.542Z,49.42
2023-04-18T10:39:25.606Z,48.04
2023-04-18T10:42:46.933Z,47.38
2023-04-18T10:46:20.458Z,49.18
2023-04-18T10:49:34.028Z,48.92
2023-04-18T10:52:36.597Z,47.99
2023-04-18T10:55:44.624Z,47.25
2023-04-18T10:58:51.595Z,45.52
2023-04-18T11:02:01.354Z,46.05
2023-04-18T11:05:04.880Z,46.00
2023-04-18T11:08:23.003Z,46.08
2023-04-18T11:11:25.330Z,45.55
2023-04-18T11:14:48.901Z,45.34
2023-04-18T11:17:59.791Z,45.54
2023-04-18T11:21:03.883Z,45.15
2023-04-18T11:24:06.493Z,44.65
2023-04-18T11:27:11.048Z,44.99
2023-04-18T11:30:14.847Z,44.77
2023-04-18T11:33:17.576Z,43.72
2023-04-18T11:36:19.977Z,43.16
2023-04-18T11:39:22.897Z,43.42
2023-04-18T11:42:28.778Z,44.11
2023-04-18T11:45:31.773Z,43.57
2023-04-18T11:48:38.518Z,44.20
2023-04-18T11:51:44.772Z,45.75
2023-04-18T11:54:47.152Z,46.42
2023-04-18T11:57:51.997Z,46.58
2023-04-18T12:00:54.403Z,47.07
2023-04-18T12:04:16.732Z,46.86
2023-04-18T12:07:34.815Z,46.68
2023-04-18T12:10:38.566Z,46.46
2023-04-18T12:13:40.892Z,46.06
2023-04-18T12:16:44.399Z,45.64
2023-04-18T12:19:49.255Z,45.37
2023-04-18T12:22:54.221Z,44.97
2023-04-18T12:26:18.285Z,44.19
2023-04-18T12:29:21.036Z,44.15
2023-04-18T12:32:23.345Z,44.38
2023-04-18T12:35:26.369Z,44.09
2023-04-18T12:38:28.786Z,44.03
2023-04-18T12:41:31.553Z,43.56
2023-04-18T12:44:34.891Z,43.00
2023-04-18T12:47:42.148Z,43.14
2023-04-18T12:50:44.627Z,43.78
2023-04-18T12:53:47.377Z,43.86
2023-04-18T12:56:49.774Z,41.11
2023-04-18T12:59:52.532Z,40.57
2023-04-18T13:02:55.142Z,38.27
2023-04-18T13:05:57.922Z,37.61
2023-04-18T13:09:00.236Z,37.19
2023-04-18T13:12:03.603Z,36.88
2023-04-18T13:15:07.611Z,35.77
2023-04-18T13:18:10.257Z,35.03
2023-04-18T13:21:12.577Z,34.02
2023-04-18T13:24:15.250Z,33.99
2023-04-18T13:27:18.196Z,32.69
2023-04-18T13:30:21.160Z,33.37
2023-04-18T13:33:23.575Z,32.61
2023-04-18T13:36:27.683Z,32.41
2023-04-18T13:39:32.775Z,32.64
2023-04-18T13:42:37.094Z,32.63
2023-04-18T13:45:39.675Z,33.65
2023-04-18T13:48:42.385Z,33.62
2023-04-18T13:51:44.703Z,32.74
2023-04-18T13:54:48.293Z,32.40
2023-04-18T13:57:51.088Z,31.56
2023-04-18T14:00:54.004Z,31.66
2023-04-18T14:03:56.958Z,31.22
2023-04-18T14:06:59.380Z,30.99
2023-04-18T14:10:02.166Z,30.63
2023-04-18T14:13:04.601Z,30.49
2023-04-18T14:16:07.652Z,30.90
2023-04-18T14:19:10.090Z,30.96
2023-04-18T14:22:12.735Z,30.71
2023-04-18T14:25:17.033Z,30.14
2023-04-18T14:28:21.676Z,30.06
2023-04-18T14:31:24.229Z,30.42
2023-04-18T14:34:26.890Z,30.05
2023-04-18T14:37:29.190Z,30.31
2023-04-18T14:40:33.001Z,29.98
2023-04-18T14:43:35.494Z,30.69
2023-04-18T14:46:38.244Z,30.97
2023-04-18T14:49:40.743Z,31.01
2023-04-18T14:52:44.790Z,30.52
2023-04-18T14:55:47.113Z,30.67
2023-04-18T14:58:50.090Z,30.53
2023-04-18T15:01:52.460Z,29.26
2023-04-18T15:04:55.487Z,29.48
2023-04-18T15:07:58.125Z,28.87
2023-04-18T15:11:01.277Z,29.49
2023-04-18T15:14:03.815Z,29.85
2023-04-18T15:17:06.506Z,30.55
2023-04-18T15:20:09.521Z,30.90
2023-04-18T15:23:13.812Z,31.04
2023-04-18T15:26:16.530Z,30.90
2023-04-18T15:29:19.164Z,30.32
2023-04-18T15:32:22.105Z,30.39
2023-04-18T15:35:24.891Z,30.85
2023-04-18T15:38:27.486Z,31.11
2023-04-18T15:41:30.888Z,31.49
2023-04-18T15:44:33.249Z,31.83
2023-04-18T15:47:36.219Z,31.62
2023-04-18T15:50:38.670Z,31.44
2023-04-18T15:53:41.281Z,32.18
2023-04-18T15:56:44.758Z,32.66
2023-04-18T15:59:47.437Z,32.97
2023-04-18T16:02:49.805Z,33.01
2023-04-18T16:05:52.465Z,33.09
2023-04-18T16:08:54.898Z,33.10
2023-04-18T16:11:57.781Z,33.04
2023-04-18T16:15:00.193Z,33.39
2023-04-18T16:18:02.906Z,33.66
2023-04-18T16:21:05.304Z,33.92
2023-04-18T16:24:08.030Z,33.91
2023-04-18T16:27:10.568Z,33.99
2023-04-18T16:30:13.458Z,34.30
2023-04-18T16:33:16.053Z,34.44
2023-04-18T16:36:18.699Z,34.51
2023-04-18T16:39:21.062Z,34.56
2023-04-18T16:42:23.770Z,34.83
2023-04-18T16:45:26.322Z,35.05
2023-04-18T16:48:29.332Z,34.72
2023-04-18T16:51:31.978Z,34.83
2023-04-18T16:54:35.034Z,34.63
2023-04-18T16:57:37.696Z,34.74
2023-04-18T17:00:40.538Z,35.05
2023-04-18T17:03:43.274Z,35.17
2023-04-18T17:06:46.760Z,35.41
2023-04-18T17:09:49.344Z,35.49
2023-04-18T17:12:53.112Z,35.56
2023-04-18T17:15:59.125Z,35.64
2023-04-18T17:19:01.987Z,35.44
2023-04-18T17:22:04.534Z,35.69
2023-04-18T17:25:08.158Z,35.73
2023-04-18T17:28:11.989Z,35.77
2023-04-18T17:31:15.741Z,36.13
2023-04-18T17:34:18.383Z,36.12
2023-04-18T17:37:22.427Z,36.51
2023-04-18T17:40:25.256Z,36.89
2023-04-18T17:43:28.256Z,36.88
2023-04-18T17:46:32.275Z,36.92
2023-04-18T17:49:36.073Z,37.04
2023-04-18T17:52:39.692Z,37.34
2023-04-18T17:55:42.760Z,37.29
2023-04-18T17:58:46.254Z,37.54
2023-04-18T18:01:49.925Z,37.99
2023-04-18T18:04:53.153Z,38.20
2023-04-18T18:07:57.807Z,37.95
2023-04-18T18:11:03.038Z,38.45
2023-04-18T18:14:06.575Z,38.92
2023-04-18T18:17:09.701Z,38.97
2023-04-18T18:20:12.500Z,38.46
2023-04-18T18:23:17.041Z,38.44
2023-04-18T18:26:23.055Z,39.18
2023-04-18T18:29:29.319Z,39.06
2023-04-18T18:32:32.807Z,39.13
2023-04-18T18:35:36.871Z,40.03
2023-04-18T18:38:39.406Z,40.47
2023-04-18T18:41:43.056Z,40.99
2023-04-18T18:44:49.350Z,41.31
2023-04-18T18:47:52.820Z,41.72
2023-04-18T18:50:57.124Z,41.92
2023-04-18T18:54:00.726Z,42.09
2023-04-18T18:57:12.710Z,42.24
2023-04-18T19:00:16.497Z,42.48
2023-04-18T19:03:23.533Z,42.43
2023-04-18T19:06:29.433Z,42.49
2023-04-18T19:09:36.836Z,42.23
2023-04-18T19:12:40.757Z,42.17
2023-04-18T19:15:43.965Z,41.98
2023-04-18T19:18:49.212Z,41.46
2023-04-18T19:21:54.196Z,41.47
2023-04-18T19:24:57.440Z,41.18
2023-04-18T19:28:00.317Z,41.28
2023-04-18T19:31:03.793Z,41.48
2023-04-18T19:34:09.191Z,41.57
2023-04-18T19:37:12.242Z,41.63
2023-04-18T19:40:15.205Z,41.75
2023-04-18T19:43:18.451Z,41.65
2023-04-18T19:46:21.665Z,41.63
2023-04-18T19:49:24.857Z,41.37
2023-04-18T19:52:27.421Z,41.41
2023-04-18T19:55:31.029Z,41.61
2023-04-18T19:58:45.383Z,41.50
2023-04-18T20:01:51.403Z,41.35
2023-04-18T20:04:54.692Z,41.16
2023-04-18T20:07:57.758Z,41.27
2023-04-18T20:11:00.649Z,41.48
2023-04-18T20:14:03.656Z,41.68
2023-04-18T20:17:07.006Z,41.72
2023-04-18T20:20:11.463Z,41.83
2023-04-18T20:23:17.336Z,41.82
2023-04-18T20:26:19.920Z,41.90
2023-04-18T20:29:23.031Z,42.10
2023-04-18T20:32:26.686Z,41.82
2023-04-18T20:35:30.324Z,42.26
2023-04-18T20:38:34.332Z,41.89
2023-04-18T20:41:37.783Z,41.45
2023-04-18T20:44:43.254Z,41.81
2023-04-18T20:47:46.464Z,42.08
2023-04-18T20:50:51.533Z,42.07
2023-04-18T20:53:54.934Z,42.68
2023-04-18T20:56:57.836Z,43.28
2023-04-18T21:00:01.077Z,43.67
2023-04-18T21:03:04.134Z,43.98
2023-04-18T21:06:10.340Z,44.22
2023-04-18T21:09:13.158Z,44.42
2023-04-18T21:12:16.759Z,44.36
2023-04-18T21:15:19.751Z,44.17
2023-04-18T21:18:23.103Z,44.49
2023-04-18T21:21:25.636Z,44.59
2023-04-18T21:24:28.268Z,44.66
2023-04-18T21:27:30.634Z,44.67
2023-04-18T21:30:33.494Z,45.36
2023-04-18T21:33:35.847Z,45.79
2023-04-18T21:36:40.190Z,45.98
2023-04-18T21:39:42.588Z,46.62
2023-04-18T21:42:46.179Z,46.93
2023-04-18T21:45:49.208Z,46.71
2023-04-18T21:48:51.824Z,46.87
2023-04-18T21:51:55.022Z,46.92
2023-04-18T21:54:59.187Z,46.68
2023-04-18T21:58:01.713Z,46.23
2023-04-18T22:01:04.443Z,46.30
2023-04-18T22:04:07.309Z,46.25
2023-04-18T22:07:11.396Z,46.37
2023-04-18T22:10:14.166Z,46.54
2023-04-18T22:13:19.015Z,46.43
2023-04-18T22:16:24.778Z,46.70
2023-04-18T22:19:29.481Z,46.62
2023-04-18T22:22:32.210Z,46.55
2023-04-18T22:25:34.938Z,46.57
2023-04-18T22:28:37.683Z,46.83
2023-04-18T22:31:40.125Z,46.74
2023-04-18T22:34:42.837Z,46.99
2023-04-18T22:37:45.348Z,46.83
2023-04-18T22:40:48.020Z,46.94
2023-04-18T22:43:50.479Z,46.85
2023-04-18T22:46:54.730Z,46.97
2023-04-18T22:49:57.027Z,47.09
2023-04-18T22:52:59.618Z,47.17
2023-04-18T22:56:01.979Z,47.02
2023-04-18T22:59:04.586Z,46.93
2023-04-18T23:02:07.039Z,47.04
2023-04-18T23:05:10.860Z,46.68
2023-04-18T23:08:13.208Z,46.79
2023-04-18T23:11:15.881Z,46.61
2023-04-18T23:14:18.394Z,45.87
2023-04-18T23:17:21.172Z,45.71
2023-04-18T23:20:24.076Z,45.71
2023-04-18T23:23:26.866Z,45.89
2023-04-18T23:26:29.209Z,45.28
2023-04-18T23:29:31.833Z,45.53
2023-04-18T23:32:34.214Z,45.44
2023-04-18T23:35:36.959Z,45.30
2023-04-18T23:38:40.790Z,45.54
2023-04-18T23:41:43.346Z,45.27
2023-04-18T23:44:45.667Z,44.98
2023-04-18T23:47:48.391Z,45.29
2023-04-18T23:50:52.540Z,45.22
2023-04-18T23:53:55.550Z,45.09
2023-04-18T23:56:58.238Z,45.21
